Blarney — WDF2810 — position and weather

sailwx.info

Track history (hours):
 
Tides and Currents Weather Stations Pressure Air Temp Water Temp Dewpoint Dewpoint Depression Visibility Wind Speed Wind Dir Waves Ship Positions

Blarney

Owner: Tug Blarney, LLC, Seattle, WA. More information available from US FCC via Universal Licensing System and Coast Guard Vessel Documentation Center.

Last reported at 2017-Nov-19 01:37 UTC. Time now 2017-Nov-22 05:29 UTC.
Position N 32°42' W 117°09'.

Length 30 m; draft 4 m.

Type: Towing. MMSI: 367300280.

Date/timePositionNaut miles runAvg speedWind from/ knotsBaromVisibWave heightAir tempDewpointWater temp
2017-Nov-19 01:37N 32°42' W 117°09'4 2.9
2017-Nov-19 00:19N 32°42' W 117°14'5 4.6
2017-Nov-18 23:08N 32°37' W 117°16'3 5.9
2017-Nov-18 22:35N 32°39' W 117°19'2 6.2
2017-Nov-18 22:14N 32°40' W 117°21'2 6.5
2017-Nov-18 22:00N 32°41' W 117°23'3 6.4
2017-Nov-18 21:30N 32°42' W 117°26'3 6.0
2017-Nov-18 21:00N 32°44' W 117°29'3 5.9
2017-Nov-18 20:30N 32°45' W 117°32'3 5.9
2017-Nov-18 20:00N 32°46' W 117°35'3 5.9
2017-Nov-18 19:30N 32°48' W 117°38'3 5.9
2017-Nov-18 19:00N 32°50' W 117°41'3 5.8
2017-Nov-18 18:30N 32°51' W 117°44'3 5.8
2017-Nov-18 18:00N 32°53' W 117°47'3 6.0
2017-Nov-18 17:29N 32°55' W 117°50'3 6.0
2017-Nov-18 17:00N 32°57' W 117°53'3 5.8
2017-Nov-18 16:30N 32°58' W 117°55'3 5.7
2017-Nov-18 15:59N 33°00' W 117°58'39 5.7
2017-Nov-18 09:08N 33°23' W 118°36'1 5.7
2017-Nov-18 09:00N 33°24' W 118°36'3 5.9
2017-Nov-18 08:28N 33°26' W 118°39'3 5.7
2017-Nov-18 07:51N 33°29' W 118°41'4 5.5
2017-Nov-18 07:09N 33°31' W 118°45'1 5.5
2017-Nov-18 07:00N 33°32' W 118°45'2 5.1
2017-Nov-18 06:30N 33°34' W 118°47'3 5.4
2017-Nov-18 06:00N 33°36' W 118°50'3 5.2
2017-Nov-18 05:30N 33°37' W 118°52'3 5.5
2017-Nov-18 04:59N 33°40' W 118°54'3 5.7
2017-Nov-18 04:30N 33°42' W 118°56'3 5.6
2017-Nov-18 04:00N 33°44' W 118°59'3 5.6
2017-Nov-18 03:30N 33°46' W 119°01'3 5.2
2017-Nov-18 03:00N 33°48' W 119°03'3 5.2
2017-Nov-18 02:30N 33°49' W 119°06'3 5.3
2017-Nov-18 02:00N 33°51' W 119°08'3 5.6
2017-Nov-18 01:30N 33°53' W 119°10'3 6.4
2017-Nov-18 01:00N 33°55' W 119°13'3 6.7
2017-Nov-18 00:30N 33°58' W 119°16'4 6.5
2017-Nov-17 23:57N 34°00' W 119°19'4 6.9
2017-Nov-17 23:23N 34°03' W 119°22'3 6.9
2017-Nov-17 22:59N 34°05' W 119°24'3 6.7
2017-Nov-17 22:30N 34°07' W 119°27'3 6.4
2017-Nov-17 21:58N 34°10' W 119°30'3 6.2
2017-Nov-17 21:26N 34°12' W 119°33'3 6.2
2017-Nov-17 20:57N 34°15' W 119°35'3 6.1
2017-Nov-17 20:30N 34°17' W 119°37'3 6.1
2017-Nov-17 20:00N 34°19' W 119°39'3 5.4
2017-Nov-17 19:28N 34°22' W 119°40'2 4.2
2017-Nov-17 19:00N 34°24' W 119°41'1 1.5
2017-Nov-17 18:30N 34°25' W 119°40'0 0.1
2017-Nov-17 17:58N 34°25' W 119°40'0 0.1
2017-Nov-17 17:29N 34°25' W 119°40'0 0.0
2017-Nov-17 17:00N 34°25' W 119°40'0 0.7
2017-Nov-17 16:29N 34°24' W 119°40'1 1.4
2017-Nov-17 15:57N 34°24' W 119°41'0 0.6
2017-Nov-17 15:30N 34°24' W 119°41'1 1.0
2017-Nov-17 14:59N 34°24' W 119°40'1 1.5
2017-Nov-17 14:27N 34°24' W 119°41'1 1.3
2017-Nov-17 14:00N 34°23' W 119°41'1 1.3
2017-Nov-17 13:30N 34°23' W 119°41'1 2.6
2017-Nov-17 12:59N 34°22' W 119°40'1 2.7
2017-Nov-17 12:27N 34°20' W 119°40'1 2.6
2017-Nov-17 11:57N 34°19' W 119°40'1 2.7
2017-Nov-17 11:30N 34°18' W 119°40'1 2.8
2017-Nov-17 11:00N 34°16' W 119°39'1 3.0
2017-Nov-17 10:30N 34°15' W 119°39'1 2.7
2017-Nov-17 10:00N 34°14' W 119°38'1 2.9
2017-Nov-17 09:29N 34°14' W 119°36'1 3.0
2017-Nov-17 09:00N 34°13' W 119°34'1 3.0
2017-Nov-17 08:30N 34°12' W 119°33'2 3.1
2017-Nov-17 08:00N 34°11' W 119°31'2 3.1
2017-Nov-17 07:28N 34°10' W 119°30'2 3.3
2017-Nov-17 06:56N 34°09' W 119°29'2 3.6
2017-Nov-17 06:29N 34°08' W 119°27'2 3.6
2017-Nov-17 06:00N 34°06' W 119°26'2 3.1
2017-Nov-17 05:29N 34°05' W 119°24'1 2.5
2017-Nov-17 05:00N 34°04' W 119°23'2 3.6
2017-Nov-17 04:29N 34°03' W 119°21'2 4.1
2017-Nov-17 04:00N 34°02' W 119°20'2 4.1
2017-Nov-17 03:28N 34°00' W 119°18'2 3.7
2017-Nov-17 02:59N 33°59' W 119°16'2 3.3
2017-Nov-17 02:30N 33°58' W 119°15'2 3.3
2017-Nov-17 02:00N 33°57' W 119°13'2 3.2
2017-Nov-17 01:30N 33°56' W 119°12'1 3.1
2017-Nov-17 01:01N 33°55' W 119°11'2 3.1
2017-Nov-17 00:30N 33°53' W 119°10'2 3.4
2017-Nov-17 00:00N 33°52' W 119°08'2 3.7
2017-Nov-16 23:30N 33°51' W 119°06'2 3.7
2017-Nov-16 23:00N 33°50' W 119°05'2 3.3
2017-Nov-16 22:30N 33°49' W 119°03'2 3.6
2017-Nov-16 22:00N 33°48' W 119°02'2 3.6
2017-Nov-16 21:30N 33°46' W 119°00'2 3.8
2017-Nov-16 21:00N 33°45' W 118°59'2 3.9
2017-Nov-16 20:30N 33°43' W 118°58'2 3.9
2017-Nov-16 20:00N 33°42' W 118°56'2 3.9
2017-Nov-16 19:30N 33°40' W 118°55'2 3.9
2017-Nov-16 19:00N 33°39' W 118°53'2 3.7
2017-Nov-16 18:30N 33°37' W 118°52'24 4.0
2017-Nov-16 12:34N 33°20' W 118°32'1 4.4
2017-Nov-16 12:26N 33°20' W 118°31'2 4.3
2017-Nov-16 11:57N 33°18' W 118°29'2 4.2
2017-Nov-16 11:29N 33°17' W 118°28'2 4.2
2017-Nov-16 11:00N 33°16' W 118°26'2 4.1
2017-Nov-16 10:30N 33°14' W 118°24'2 4.0
2017-Nov-16 09:56N 33°13' W 118°22'2 3.9
2017-Nov-16 09:30N 33°12' W 118°20'2 3.9
2017-Nov-16 09:00N 33°11' W 118°18'2 3.8
2017-Nov-16 08:30N 33°10' W 118°16'2 3.8
2017-Nov-16 08:00N 33°09' W 118°14'2 4.0
2017-Nov-16 07:30N 33°08' W 118°12'2 4.0
2017-Nov-16 07:00N 33°07' W 118°10'3 4.0
2017-Nov-16 06:19N 33°05' W 118°07'1 4.1
2017-Nov-16 06:00N 33°05' W 118°06'2 4.0
2017-Nov-16 05:29N 33°04' W 118°04'2 4.1
2017-Nov-16 04:59N 33°03' W 118°02'2 4.2
2017-Nov-16 04:30N 33°02' W 117°60'2 4.2
2017-Nov-16 04:00N 33°01' W 117°57'2 4.1
2017-Nov-16 03:30N 32°60' W 117°55'2 4.3
2017-Nov-16 03:00N 32°59' W 117°53'3 4.2
2017-Nov-16 02:23N 32°57' W 117°51'2 4.1
2017-Nov-16 01:51N 32°56' W 117°49'1 4.2
2017-Nov-16 01:30N 32°55' W 117°47'8 4.0
2017-Nov-15 23:23N 32°49' W 117°40'2 4.0
2017-Nov-15 23:00N 32°48' W 117°38'2 4.0
2017-Nov-15 22:30N 32°47' W 117°36'2 4.0
2017-Nov-15 22:00N 32°46' W 117°34'2 3.9
2017-Nov-15 21:30N 32°45' W 117°32'2 3.9
2017-Nov-15 21:00N 32°44' W 117°30'2 4.0
2017-Nov-15 20:30N 32°43' W 117°28'2 4.0
2017-Nov-15 19:59N 32°42' W 117°26'  
2017-Nov-13 00:37N 32°42' W 117°09'0 0.1
2017-Nov-13 00:30N 32°42' W 117°09'0 0.0
2017-Nov-12 16:51N 32°42' W 117°09'0 0.0
2017-Nov-12 16:15N 32°42' W 117°09'0 0.0
2017-Nov-12 16:00N 32°42' W 117°09'0 0.0
2017-Nov-12 15:08N 32°42' W 117°09'0 0.0
2017-Nov-12 14:58N 32°42' W 117°09'0 0.0
2017-Nov-12 13:38N 32°42' W 117°09'0 0.0
2017-Nov-12 12:57N 32°42' W 117°09'0 0.0
2017-Nov-12 12:28N 32°42' W 117°09'  
Track history (hours):
 
Tides and Currents Weather Stations Pressure Air Temp Water Temp Dewpoint Dewpoint Depression Visibility Wind Speed Wind Dir Waves Ship Positions

Blarney

Owner: Tug Blarney, LLC, Seattle, WA. More information available from US FCC via Universal Licensing System and Coast Guard Vessel Documentation Center.

Last reported at 2017-Nov-19 01:37 UTC. Time now 2017-Nov-22 05:29 UTC.
Position N 32°42' W 117°09'.

Length 30 m; draft 4 m.

Type: Towing. MMSI: 367300280.

Date/timePositionNaut miles runAvg speedWind from/ knotsBaromVisibWave heightAir tempDewpointWater temp
2017-Nov-19 01:37N 32°42' W 117°09'4 2.9
2017-Nov-19 00:19N 32°42' W 117°14'5 4.6
2017-Nov-18 23:08N 32°37' W 117°16'3 5.9
2017-Nov-18 22:35N 32°39' W 117°19'2 6.2
2017-Nov-18 22:14N 32°40' W 117°21'2 6.5
2017-Nov-18 22:00N 32°41' W 117°23'3 6.4
2017-Nov-18 21:30N 32°42' W 117°26'3 6.0
2017-Nov-18 21:00N 32°44' W 117°29'3 5.9
2017-Nov-18 20:30N 32°45' W 117°32'3 5.9
2017-Nov-18 20:00N 32°46' W 117°35'3 5.9
2017-Nov-18 19:30N 32°48' W 117°38'3 5.9
2017-Nov-18 19:00N 32°50' W 117°41'3 5.8
2017-Nov-18 18:30N 32°51' W 117°44'3 5.8
2017-Nov-18 18:00N 32°53' W 117°47'3 6.0
2017-Nov-18 17:29N 32°55' W 117°50'3 6.0
2017-Nov-18 17:00N 32°57' W 117°53'3 5.8
2017-Nov-18 16:30N 32°58' W 117°55'3 5.7
2017-Nov-18 15:59N 33°00' W 117°58'39 5.7
2017-Nov-18 09:08N 33°23' W 118°36'1 5.7
2017-Nov-18 09:00N 33°24' W 118°36'3 5.9
2017-Nov-18 08:28N 33°26' W 118°39'3 5.7
2017-Nov-18 07:51N 33°29' W 118°41'4 5.5
2017-Nov-18 07:09N 33°31' W 118°45'1 5.5
2017-Nov-18 07:00N 33°32' W 118°45'2 5.1
2017-Nov-18 06:30N 33°34' W 118°47'3 5.4
2017-Nov-18 06:00N 33°36' W 118°50'3 5.2
2017-Nov-18 05:30N 33°37' W 118°52'3 5.5
2017-Nov-18 04:59N 33°40' W 118°54'3 5.7
2017-Nov-18 04:30N 33°42' W 118°56'3 5.6
2017-Nov-18 04:00N 33°44' W 118°59'3 5.6
2017-Nov-18 03:30N 33°46' W 119°01'3 5.2
2017-Nov-18 03:00N 33°48' W 119°03'3 5.2
2017-Nov-18 02:30N 33°49' W 119°06'3 5.3
2017-Nov-18 02:00N 33°51' W 119°08'3 5.6
2017-Nov-18 01:30N 33°53' W 119°10'3 6.4
2017-Nov-18 01:00N 33°55' W 119°13'3 6.7
2017-Nov-18 00:30N 33°58' W 119°16'4 6.5
2017-Nov-17 23:57N 34°00' W 119°19'4 6.9
2017-Nov-17 23:23N 34°03' W 119°22'3 6.9
2017-Nov-17 22:59N 34°05' W 119°24'3 6.7
2017-Nov-17 22:30N 34°07' W 119°27'3 6.4
2017-Nov-17 21:58N 34°10' W 119°30'3 6.2
2017-Nov-17 21:26N 34°12' W 119°33'3 6.2
2017-Nov-17 20:57N 34°15' W 119°35'3 6.1
2017-Nov-17 20:30N 34°17' W 119°37'3 6.1
2017-Nov-17 20:00N 34°19' W 119°39'3 5.4
2017-Nov-17 19:28N 34°22' W 119°40'2 4.2
2017-Nov-17 19:00N 34°24' W 119°41'1 1.5
2017-Nov-17 18:30N 34°25' W 119°40'0 0.1
2017-Nov-17 17:58N 34°25' W 119°40'0 0.1
2017-Nov-17 17:29N 34°25' W 119°40'0 0.0
2017-Nov-17 17:00N 34°25' W 119°40'0 0.7
2017-Nov-17 16:29N 34°24' W 119°40'1 1.4
2017-Nov-17 15:57N 34°24' W 119°41'0 0.6
2017-Nov-17 15:30N 34°24' W 119°41'1 1.0
2017-Nov-17 14:59N 34°24' W 119°40'1 1.5
2017-Nov-17 14:27N 34°24' W 119°41'1 1.3
2017-Nov-17 14:00N 34°23' W 119°41'1 1.3
2017-Nov-17 13:30N 34°23' W 119°41'1 2.6
2017-Nov-17 12:59N 34°22' W 119°40'1 2.7
2017-Nov-17 12:27N 34°20' W 119°40'1 2.6
2017-Nov-17 11:57N 34°19' W 119°40'1 2.7
2017-Nov-17 11:30N 34°18' W 119°40'1 2.8
2017-Nov-17 11:00N 34°16' W 119°39'1 3.0
2017-Nov-17 10:30N 34°15' W 119°39'1 2.7
2017-Nov-17 10:00N 34°14' W 119°38'1 2.9
2017-Nov-17 09:29N 34°14' W 119°36'1 3.0
2017-Nov-17 09:00N 34°13' W 119°34'1 3.0
2017-Nov-17 08:30N 34°12' W 119°33'2 3.1
2017-Nov-17 08:00N 34°11' W 119°31'2 3.1
2017-Nov-17 07:28N 34°10' W 119°30'2 3.3
2017-Nov-17 06:56N 34°09' W 119°29'2 3.6
2017-Nov-17 06:29N 34°08' W 119°27'2 3.6
2017-Nov-17 06:00N 34°06' W 119°26'2 3.1
2017-Nov-17 05:29N 34°05' W 119°24'1 2.5
2017-Nov-17 05:00N 34°04' W 119°23'2 3.6
2017-Nov-17 04:29N 34°03' W 119°21'2 4.1
2017-Nov-17 04:00N 34°02' W 119°20'2 4.1
2017-Nov-17 03:28N 34°00' W 119°18'2 3.7
2017-Nov-17 02:59N 33°59' W 119°16'2 3.3
2017-Nov-17 02:30N 33°58' W 119°15'2 3.3
2017-Nov-17 02:00N 33°57' W 119°13'2 3.2
2017-Nov-17 01:30N 33°56' W 119°12'1 3.1
2017-Nov-17 01:01N 33°55' W 119°11'2 3.1
2017-Nov-17 00:30N 33°53' W 119°10'2 3.4
2017-Nov-17 00:00N 33°52' W 119°08'2 3.7
2017-Nov-16 23:30N 33°51' W 119°06'2 3.7
2017-Nov-16 23:00N 33°50' W 119°05'2 3.3
2017-Nov-16 22:30N 33°49' W 119°03'2 3.6
2017-Nov-16 22:00N 33°48' W 119°02'2 3.6
2017-Nov-16 21:30N 33°46' W 119°00'2 3.8
2017-Nov-16 21:00N 33°45' W 118°59'2 3.9
2017-Nov-16 20:30N 33°43' W 118°58'2 3.9
2017-Nov-16 20:00N 33°42' W 118°56'2 3.9
2017-Nov-16 19:30N 33°40' W 118°55'2 3.9
2017-Nov-16 19:00N 33°39' W 118°53'2 3.7
2017-Nov-16 18:30N 33°37' W 118°52'24 4.0
2017-Nov-16 12:34N 33°20' W 118°32'1 4.4
2017-Nov-16 12:26N 33°20' W 118°31'2 4.3
2017-Nov-16 11:57N 33°18' W 118°29'2 4.2
2017-Nov-16 11:29N 33°17' W 118°28'2 4.2
2017-Nov-16 11:00N 33°16' W 118°26'2 4.1
2017-Nov-16 10:30N 33°14' W 118°24'2 4.0
2017-Nov-16 09:56N 33°13' W 118°22'2 3.9
2017-Nov-16 09:30N 33°12' W 118°20'2 3.9
2017-Nov-16 09:00N 33°11' W 118°18'2 3.8
2017-Nov-16 08:30N 33°10' W 118°16'2 3.8
2017-Nov-16 08:00N 33°09' W 118°14'2 4.0
2017-Nov-16 07:30N 33°08' W 118°12'2 4.0
2017-Nov-16 07:00N 33°07' W 118°10'3 4.0
2017-Nov-16 06:19N 33°05' W 118°07'1 4.1
2017-Nov-16 06:00N 33°05' W 118°06'2 4.0
2017-Nov-16 05:29N 33°04' W 118°04'2 4.1
2017-Nov-16 04:59N 33°03' W 118°02'2 4.2
2017-Nov-16 04:30N 33°02' W 117°60'2 4.2
2017-Nov-16 04:00N 33°01' W 117°57'2 4.1
2017-Nov-16 03:30N 32°60' W 117°55'2 4.3
2017-Nov-16 03:00N 32°59' W 117°53'3 4.2
2017-Nov-16 02:23N 32°57' W 117°51'2 4.1
2017-Nov-16 01:51N 32°56' W 117°49'1 4.2
2017-Nov-16 01:30N 32°55' W 117°47'8 4.0
2017-Nov-15 23:23N 32°49' W 117°40'2 4.0
2017-Nov-15 23:00N 32°48' W 117°38'2 4.0
2017-Nov-15 22:30N 32°47' W 117°36'2 4.0
2017-Nov-15 22:00N 32°46' W 117°34'2 3.9
2017-Nov-15 21:30N 32°45' W 117°32'2 3.9
2017-Nov-15 21:00N 32°44' W 117°30'2 4.0
2017-Nov-15 20:30N 32°43' W 117°28'2 4.0
2017-Nov-15 19:59N 32°42' W 117°26'  
2017-Nov-13 00:37N 32°42' W 117°09'0 0.1
2017-Nov-13 00:30N 32°42' W 117°09'0 0.0
2017-Nov-12 16:51N 32°42' W 117°09'0 0.0
2017-Nov-12 16:15N 32°42' W 117°09'0 0.0
2017-Nov-12 16:00N 32°42' W 117°09'0 0.0
2017-Nov-12 15:08N 32°42' W 117°09'0 0.0
2017-Nov-12 14:58N 32°42' W 117°09'0 0.0
2017-Nov-12 13:38N 32°42' W 117°09'0 0.0
2017-Nov-12 12:57N 32°42' W 117°09'0 0.0
2017-Nov-12 12:28N 32°42' W 117°09'  

Dump ship's entire track history